sensor_id;sensor_type;location;lat;lon;timestamp;P1;durP1;ratioP1;P2;durP2;ratioP2
76591;SDS011;65481;47.600;19.682;2023-05-07T00:02:46;21.00;;;16.08;;
76591;SDS011;65481;47.600;19.682;2023-05-07T00:07:46;22.70;;;17.75;;
76591;SDS011;65481;47.600;19.682;2023-05-07T00:12:47;26.40;;;19.10;;
76591;SDS011;65481;47.600;19.682;2023-05-07T00:17:48;23.92;;;18.23;;
76591;SDS011;65481;47.600;19.682;2023-05-07T00:22:48;24.45;;;17.30;;
76591;SDS011;65481;47.600;19.682;2023-05-07T00:27:49;26.83;;;17.95;;
76591;SDS011;65481;47.600;19.682;2023-05-07T00:32:49;21.98;;;16.67;;
76591;SDS011;65481;47.600;19.682;2023-05-07T00:37:50;25.15;;;18.50;;
76591;SDS011;65481;47.600;19.682;2023-05-07T00:42:51;25.20;;;18.80;;
76591;SDS011;65481;47.600;19.682;2023-05-07T00:47:58;22.83;;;17.17;;
76591;SDS011;65481;47.600;19.682;2023-05-07T00:53:00;21.38;;;16.38;;
76591;SDS011;65481;47.600;19.682;2023-05-07T00:58:00;26.08;;;18.38;;
76591;SDS011;65481;47.600;19.682;2023-05-07T01:03:01;19.63;;;15.77;;
76591;SDS011;65481;47.600;19.682;2023-05-07T01:08:02;24.20;;;17.63;;
76591;SDS011;65481;47.600;19.682;2023-05-07T01:13:05;23.38;;;17.00;;
76591;SDS011;65481;47.600;19.682;2023-05-07T01:18:05;20.55;;;16.02;;
76591;SDS011;65481;47.600;19.682;2023-05-07T01:23:07;21.23;;;15.07;;
76591;SDS011;65481;47.600;19.682;2023-05-07T01:28:08;19.92;;;14.48;;
76591;SDS011;65481;47.600;19.682;2023-05-07T01:33:09;18.30;;;14.68;;
76591;SDS011;65481;47.600;19.682;2023-05-07T01:38:13;21.13;;;15.63;;
76591;SDS011;65481;47.600;19.682;2023-05-07T01:43:14;19.70;;;14.80;;
76591;SDS011;65481;47.600;19.682;2023-05-07T01:48:15;23.90;;;17.63;;
76591;SDS011;65481;47.600;19.682;2023-05-07T01:53:16;21.90;;;16.45;;
76591;SDS011;65481;47.600;19.682;2023-05-07T01:58:16;20.02;;;16.20;;
76591;SDS011;65481;47.600;19.682;2023-05-07T02:03:17;19.80;;;14.95;;
76591;SDS011;65481;47.600;19.682;2023-05-07T02:08:17;21.13;;;14.18;;
76591;SDS011;65481;47.600;19.682;2023-05-07T02:13:18;19.52;;;13.32;;
76591;SDS011;65481;47.600;19.682;2023-05-07T02:18:20;21.88;;;17.00;;
76591;SDS011;65481;47.600;19.682;2023-05-07T02:23:20;17.48;;;12.32;;
76591;SDS011;65481;47.600;19.682;2023-05-07T02:28:20;20.08;;;13.25;;
76591;SDS011;65481;47.600;19.682;2023-05-07T02:33:22;18.85;;;14.50;;
76591;SDS011;65481;47.600;19.682;2023-05-07T02:38:22;16.80;;;12.95;;
76591;SDS011;65481;47.600;19.682;2023-05-07T02:43:23;21.30;;;14.25;;
76591;SDS011;65481;47.600;19.682;2023-05-07T02:48:23;18.60;;;14.77;;
76591;SDS011;65481;47.600;19.682;2023-05-07T02:53:24;19.08;;;13.27;;
76591;SDS011;65481;47.600;19.682;2023-05-07T02:58:27;18.52;;;13.63;;
76591;SDS011;65481;47.600;19.682;2023-05-07T03:03:28;20.10;;;13.10;;
76591;SDS011;65481;47.600;19.682;2023-05-07T03:08:29;15.50;;;11.38;;
76591;SDS011;65481;47.600;19.682;2023-05-07T03:13:30;16.10;;;11.40;;
76591;SDS011;65481;47.600;19.682;2023-05-07T03:18:30;14.82;;;10.68;;
76591;SDS011;65481;47.600;19.682;2023-05-07T03:23:31;15.00;;;10.98;;
76591;SDS011;65481;47.600;19.682;2023-05-07T03:28:31;15.70;;;12.00;;
76591;SDS011;65481;47.600;19.682;2023-05-07T03:33:34;14.43;;;11.45;;
76591;SDS011;65481;47.600;19.682;2023-05-07T03:38:35;15.50;;;11.35;;
76591;SDS011;65481;47.600;19.682;2023-05-07T03:43:36;16.02;;;11.32;;
76591;SDS011;65481;47.600;19.682;2023-05-07T03:48:37;17.65;;;11.80;;
76591;SDS011;65481;47.600;19.682;2023-05-07T03:53:37;18.85;;;13.32;;
76591;SDS011;65481;47.600;19.682;2023-05-07T03:58:38;16.88;;;12.50;;
76591;SDS011;65481;47.600;19.682;2023-05-07T04:03:38;14.43;;;11.88;;
76591;SDS011;65481;47.600;19.682;2023-05-07T04:08:39;17.85;;;13.10;;
76591;SDS011;65481;47.600;19.682;2023-05-07T04:13:40;19.63;;;13.73;;
76591;SDS011;65481;47.600;19.682;2023-05-07T04:18:40;18.00;;;12.85;;
76591;SDS011;65481;47.600;19.682;2023-05-07T04:23:41;22.08;;;13.88;;
76591;SDS011;65481;47.600;19.682;2023-05-07T04:28:41;16.45;;;13.02;;
76591;SDS011;65481;47.600;19.682;2023-05-07T04:33:42;17.25;;;13.02;;
76591;SDS011;65481;47.600;19.682;2023-05-07T04:38:43;18.05;;;13.25;;
76591;SDS011;65481;47.600;19.682;2023-05-07T04:43:43;16.05;;;12.30;;
76591;SDS011;65481;47.600;19.682;2023-05-07T04:48:44;18.00;;;12.38;;
76591;SDS011;65481;47.600;19.682;2023-05-07T04:53:44;15.15;;;12.70;;
76591;SDS011;65481;47.600;19.682;2023-05-07T04:58:45;17.17;;;12.57;;
76591;SDS011;65481;47.600;19.682;2023-05-07T05:03:45;16.05;;;12.90;;
76591;SDS011;65481;47.600;19.682;2023-05-07T05:08:46;15.00;;;11.85;;
76591;SDS011;65481;47.600;19.682;2023-05-07T05:13:46;17.30;;;12.82;;
76591;SDS011;65481;47.600;19.682;2023-05-07T05:18:49;16.27;;;12.02;;
76591;SDS011;65481;47.600;19.682;2023-05-07T05:23:50;13.70;;;11.60;;
76591;SDS011;65481;47.600;19.682;2023-05-07T05:28:50;13.55;;;11.25;;
76591;SDS011;65481;47.600;19.682;2023-05-07T05:33:51;13.80;;;11.70;;
76591;SDS011;65481;47.600;19.682;2023-05-07T05:38:51;14.30;;;12.43;;
76591;SDS011;65481;47.600;19.682;2023-05-07T05:43:52;13.88;;;11.75;;
76591;SDS011;65481;47.600;19.682;2023-05-07T05:48:52;15.50;;;10.68;;
76591;SDS011;65481;47.600;19.682;2023-05-07T05:53:53;13.23;;;11.23;;
76591;SDS011;65481;47.600;19.682;2023-05-07T05:58:53;11.63;;;10.38;;
76591;SDS011;65481;47.600;19.682;2023-05-07T06:03:54;11.82;;;10.48;;
76591;SDS011;65481;47.600;19.682;2023-05-07T06:08:56;11.20;;;9.77;;
76591;SDS011;65481;47.600;19.682;2023-05-07T06:13:57;12.40;;;9.45;;
76591;SDS011;65481;47.600;19.682;2023-05-07T06:18:58;9.70;;;8.70;;
76591;SDS011;65481;47.600;19.682;2023-05-07T06:23:58;11.93;;;8.80;;
76591;SDS011;65481;47.600;19.682;2023-05-07T06:28:59;9.15;;;8.25;;
76591;SDS011;65481;47.600;19.682;2023-05-07T06:33:59;9.13;;;8.15;;
76591;SDS011;65481;47.600;19.682;2023-05-07T06:39:02;10.05;;;8.43;;
76591;SDS011;65481;47.600;19.682;2023-05-07T06:44:02;8.48;;;7.63;;
76591;SDS011;65481;47.600;19.682;2023-05-07T06:49:03;10.35;;;7.43;;
76591;SDS011;65481;47.600;19.682;2023-05-07T06:54:04;9.57;;;7.57;;
76591;SDS011;65481;47.600;19.682;2023-05-07T06:59:05;8.73;;;7.05;;
76591;SDS011;65481;47.600;19.682;2023-05-07T07:04:06;10.32;;;7.22;;
76591;SDS011;65481;47.600;19.682;2023-05-07T07:09:06;8.32;;;7.38;;
76591;SDS011;65481;47.600;19.682;2023-05-07T07:14:07;7.40;;;6.55;;
76591;SDS011;65481;47.600;19.682;2023-05-07T07:19:08;47.80;;;10.07;;
76591;SDS011;65481;47.600;19.682;2023-05-07T07:24:08;6.28;;;5.68;;
76591;SDS011;65481;47.600;19.682;2023-05-07T07:29:09;8.35;;;6.10;;
76591;SDS011;65481;47.600;19.682;2023-05-07T07:34:09;6.80;;;5.80;;
76591;SDS011;65481;47.600;19.682;2023-05-07T07:39:10;7.05;;;5.63;;
76591;SDS011;65481;47.600;19.682;2023-05-07T07:44:10;5.00;;;4.60;;
76591;SDS011;65481;47.600;19.682;2023-05-07T07:49:12;5.00;;;4.10;;
76591;SDS011;65481;47.600;19.682;2023-05-07T07:54:13;5.40;;;4.05;;
76591;SDS011;65481;47.600;19.682;2023-05-07T07:59:14;4.93;;;4.30;;
76591;SDS011;65481;47.600;19.682;2023-05-07T08:04:17;5.53;;;3.92;;
76591;SDS011;65481;47.600;19.682;2023-05-07T08:09:18;5.18;;;4.68;;
76591;SDS011;65481;47.600;19.682;2023-05-07T08:14:18;4.88;;;3.92;;
76591;SDS011;65481;47.600;19.682;2023-05-07T08:19:19;3.95;;;3.65;;
76591;SDS011;65481;47.600;19.682;2023-05-07T08:24:20;5.60;;;4.43;;
76591;SDS011;65481;47.600;19.682;2023-05-07T08:29:20;3.90;;;3.17;;
76591;SDS011;65481;47.600;19.682;2023-05-07T08:34:21;3.65;;;3.33;;
76591;SDS011;65481;47.600;19.682;2023-05-07T08:39:22;2.88;;;1.95;;
76591;SDS011;65481;47.600;19.682;2023-05-07T08:44:22;2.92;;;2.70;;
76591;SDS011;65481;47.600;19.682;2023-05-07T08:49:27;1.20;;;1.10;;
76591;SDS011;65481;47.600;19.682;2023-05-07T08:54:28;2.20;;;2.00;;
76591;SDS011;65481;47.600;19.682;2023-05-07T08:59:29;2.15;;;1.95;;
76591;SDS011;65481;47.600;19.682;2023-05-07T09:04:30;3.45;;;2.20;;
76591;SDS011;65481;47.600;19.682;2023-05-07T09:09:34;1.83;;;1.60;;
76591;SDS011;65481;47.600;19.682;2023-05-07T09:14:35;3.22;;;1.70;;
76591;SDS011;65481;47.600;19.682;2023-05-07T09:19:35;2.10;;;1.50;;
76591;SDS011;65481;47.600;19.682;2023-05-07T09:24:36;2.80;;;1.60;;
76591;SDS011;65481;47.600;19.682;2023-05-07T09:29:38;1.63;;;1.52;;
76591;SDS011;65481;47.600;19.682;2023-05-07T09:34:38;3.30;;;2.10;;
76591;SDS011;65481;47.600;19.682;2023-05-07T09:39:42;3.60;;;1.90;;
76591;SDS011;65481;47.600;19.682;2023-05-07T09:44:43;2.45;;;1.83;;
76591;SDS011;65481;47.600;19.682;2023-05-07T09:49:46;1.98;;;1.80;;
76591;SDS011;65481;47.600;19.682;2023-05-07T09:54:48;2.17;;;1.98;;
76591;SDS011;65481;47.600;19.682;2023-05-07T09:59:50;2.53;;;2.33;;
76591;SDS011;65481;47.600;19.682;2023-05-07T10:04:53;2.22;;;2.00;;
76591;SDS011;65481;47.600;19.682;2023-05-07T10:09:55;3.00;;;2.17;;
76591;SDS011;65481;47.600;19.682;2023-05-07T10:14:56;2.40;;;2.13;;
76591;SDS011;65481;47.600;19.682;2023-05-07T10:19:57;2.65;;;2.40;;
76591;SDS011;65481;47.600;19.682;2023-05-07T10:24:57;2.80;;;2.60;;
76591;SDS011;65481;47.600;19.682;2023-05-07T10:35:17;2.40;;;2.20;;
76591;SDS011;65481;47.600;19.682;2023-05-07T10:40:21;7.03;;;2.55;;
76591;SDS011;65481;47.600;19.682;2023-05-07T10:45:22;2.63;;;2.17;;
76591;SDS011;65481;47.600;19.682;2023-05-07T10:50:23;4.93;;;2.42;;
76591;SDS011;65481;47.600;19.682;2023-05-07T10:55:23;9.18;;;2.60;;
76591;SDS011;65481;47.600;19.682;2023-05-07T11:05:31;3.17;;;2.43;;
76591;SDS011;65481;47.600;19.682;2023-05-07T11:10:49;2.58;;;1.73;;
76591;SDS011;65481;47.600;19.682;2023-05-07T11:15:54;2.95;;;1.60;;
76591;SDS011;65481;47.600;19.682;2023-05-07T11:20:55;1.63;;;1.40;;
76591;SDS011;65481;47.600;19.682;2023-05-07T11:26:05;3.40;;;1.50;;
76591;SDS011;65481;47.600;19.682;2023-05-07T11:31:07;2.70;;;1.80;;
76591;SDS011;65481;47.600;19.682;2023-05-07T11:36:08;3.97;;;1.77;;
76591;SDS011;65481;47.600;19.682;2023-05-07T11:41:09;1.65;;;1.40;;
76591;SDS011;65481;47.600;19.682;2023-05-07T11:46:11;2.13;;;1.20;;
76591;SDS011;65481;47.600;19.682;2023-05-07T11:51:12;3.08;;;1.50;;
76591;SDS011;65481;47.600;19.682;2023-05-07T11:56:13;8.88;;;1.90;;
76591;SDS011;65481;47.600;19.682;2023-05-07T12:01:15;1.77;;;1.52;;
76591;SDS011;65481;47.600;19.682;2023-05-07T12:06:16;4.15;;;1.55;;
76591;SDS011;65481;47.600;19.682;2023-05-07T12:11:24;2.40;;;1.48;;
76591;SDS011;65481;47.600;19.682;2023-05-07T12:16:27;1.75;;;1.40;;
76591;SDS011;65481;47.600;19.682;2023-05-07T12:21:27;2.88;;;1.70;;
76591;SDS011;65481;47.600;19.682;2023-05-07T12:26:29;2.13;;;1.83;;
76591;SDS011;65481;47.600;19.682;2023-05-07T12:31:30;3.10;;;2.30;;
76591;SDS011;65481;47.600;19.682;2023-05-07T12:36:37;3.25;;;2.20;;
76591;SDS011;65481;47.600;19.682;2023-05-07T12:41:57;2.10;;;1.80;;
76591;SDS011;65481;47.600;19.682;2023-05-07T12:47:02;2.72;;;1.90;;
76591;SDS011;65481;47.600;19.682;2023-05-07T12:52:03;2.17;;;1.90;;
76591;SDS011;65481;47.600;19.682;2023-05-07T12:57:08;2.88;;;1.90;;
76591;SDS011;65481;47.600;19.682;2023-05-07T13:02:09;2.53;;;2.13;;
76591;SDS011;65481;47.600;19.682;2023-05-07T13:07:09;2.85;;;2.10;;
76591;SDS011;65481;47.600;19.682;2023-05-07T13:12:10;2.50;;;2.13;;
76591;SDS011;65481;47.600;19.682;2023-05-07T13:17:10;2.42;;;2.22;;
76591;SDS011;65481;47.600;19.682;2023-05-07T13:22:11;4.95;;;2.30;;
76591;SDS011;65481;47.600;19.682;2023-05-07T13:27:11;3.72;;;2.30;;
76591;SDS011;65481;47.600;19.682;2023-05-07T13:32:12;2.70;;;2.15;;
76591;SDS011;65481;47.600;19.682;2023-05-07T13:37:12;2.50;;;2.28;;
76591;SDS011;65481;47.600;19.682;2023-05-07T13:42:13;2.60;;;2.40;;
76591;SDS011;65481;47.600;19.682;2023-05-07T13:47:13;4.28;;;2.78;;
76591;SDS011;65481;47.600;19.682;2023-05-07T13:52:14;4.40;;;2.40;;
76591;SDS011;65481;47.600;19.682;2023-05-07T13:57:14;2.75;;;1.90;;
76591;SDS011;65481;47.600;19.682;2023-05-07T14:02:15;1.75;;;1.48;;
76591;SDS011;65481;47.600;19.682;2023-05-07T14:07:15;3.15;;;1.70;;
76591;SDS011;65481;47.600;19.682;2023-05-07T14:12:16;4.50;;;1.75;;
76591;SDS011;65481;47.600;19.682;2023-05-07T14:17:17;2.83;;;2.17;;
76591;SDS011;65481;47.600;19.682;2023-05-07T14:22:18;2.80;;;2.00;;
76591;SDS011;65481;47.600;19.682;2023-05-07T14:27:19;2.65;;;2.45;;
76591;SDS011;65481;47.600;19.682;2023-05-07T14:32:20;2.65;;;2.30;;
76591;SDS011;65481;47.600;19.682;2023-05-07T14:37:21;3.85;;;2.40;;
76591;SDS011;65481;47.600;19.682;2023-05-07T14:42:22;3.70;;;2.40;;
76591;SDS011;65481;47.600;19.682;2023-05-07T14:47:22;3.03;;;2.05;;
76591;SDS011;65481;47.600;19.682;2023-05-07T14:52:23;3.13;;;2.83;;
76591;SDS011;65481;47.600;19.682;2023-05-07T14:57:23;4.05;;;3.25;;
76591;SDS011;65481;47.600;19.682;2023-05-07T15:02:24;3.40;;;3.10;;
76591;SDS011;65481;47.600;19.682;2023-05-07T15:07:25;4.15;;;3.00;;
76591;SDS011;65481;47.600;19.682;2023-05-07T15:12:25;5.63;;;3.08;;
76591;SDS011;65481;47.600;19.682;2023-05-07T15:17:26;4.28;;;2.85;;
76591;SDS011;65481;47.600;19.682;2023-05-07T15:22:26;3.80;;;2.72;;
76591;SDS011;65481;47.600;19.682;2023-05-07T15:27:27;3.20;;;2.90;;
76591;SDS011;65481;47.600;19.682;2023-05-07T15:32:27;4.47;;;3.38;;
76591;SDS011;65481;47.600;19.682;2023-05-07T15:37:28;5.00;;;2.78;;
76591;SDS011;65481;47.600;19.682;2023-05-07T15:42:30;4.45;;;3.50;;
76591;SDS011;65481;47.600;19.682;2023-05-07T15:47:32;4.57;;;2.97;;
76591;SDS011;65481;47.600;19.682;2023-05-07T15:52:34;3.80;;;3.40;;
76591;SDS011;65481;47.600;19.682;2023-05-07T15:57:35;3.42;;;2.92;;
76591;SDS011;65481;47.600;19.682;2023-05-07T16:02:36;3.80;;;2.70;;
76591;SDS011;65481;47.600;19.682;2023-05-07T16:07:36;4.60;;;2.65;;
76591;SDS011;65481;47.600;19.682;2023-05-07T16:12:37;34.55;;;4.75;;
76591;SDS011;65481;47.600;19.682;2023-05-07T16:17:37;3.10;;;2.58;;
76591;SDS011;65481;47.600;19.682;2023-05-07T16:22:38;3.35;;;2.70;;
76591;SDS011;65481;47.600;19.682;2023-05-07T16:27:39;3.20;;;2.75;;
76591;SDS011;65481;47.600;19.682;2023-05-07T16:32:39;9.40;;;3.20;;
76591;SDS011;65481;47.600;19.682;2023-05-07T16:37:40;7.53;;;2.63;;
76591;SDS011;65481;47.600;19.682;2023-05-07T16:42:40;5.30;;;2.33;;
76591;SDS011;65481;47.600;19.682;2023-05-07T16:47:41;14.63;;;3.38;;
76591;SDS011;65481;47.600;19.682;2023-05-07T16:52:42;4.53;;;2.97;;
76591;SDS011;65481;47.600;19.682;2023-05-07T16:57:42;8.30;;;5.07;;
76591;SDS011;65481;47.600;19.682;2023-05-07T17:02:43;12.88;;;5.85;;
76591;SDS011;65481;47.600;19.682;2023-05-07T17:07:44;12.32;;;5.97;;
76591;SDS011;65481;47.600;19.682;2023-05-07T17:12:45;8.27;;;5.78;;
76591;SDS011;65481;47.600;19.682;2023-05-07T17:17:46;8.48;;;7.18;;
76591;SDS011;65481;47.600;19.682;2023-05-07T17:22:46;10.50;;;6.65;;
76591;SDS011;65481;47.600;19.682;2023-05-07T17:27:47;9.05;;;6.20;;
76591;SDS011;65481;47.600;19.682;2023-05-07T17:32:47;7.65;;;6.13;;
76591;SDS011;65481;47.600;19.682;2023-05-07T17:37:48;6.22;;;4.70;;
76591;SDS011;65481;47.600;19.682;2023-05-07T17:42:51;5.20;;;3.83;;
76591;SDS011;65481;47.600;19.682;2023-05-07T17:47:51;7.53;;;4.07;;
76591;SDS011;65481;47.600;19.682;2023-05-07T17:52:52;4.53;;;3.83;;
76591;SDS011;65481;47.600;19.682;2023-05-07T17:57:53;13.98;;;4.05;;
76591;SDS011;65481;47.600;19.682;2023-05-07T18:02:53;6.22;;;3.38;;
76591;SDS011;65481;47.600;19.682;2023-05-07T18:07:54;5.40;;;3.10;;
76591;SDS011;65481;47.600;19.682;2023-05-07T18:12:55;6.18;;;3.58;;
76591;SDS011;65481;47.600;19.682;2023-05-07T18:17:55;3.75;;;3.33;;
76591;SDS011;65481;47.600;19.682;2023-05-07T18:22:56;5.38;;;3.10;;
76591;SDS011;65481;47.600;19.682;2023-05-07T18:27:56;4.20;;;3.13;;
76591;SDS011;65481;47.600;19.682;2023-05-07T18:32:57;8.73;;;5.72;;
76591;SDS011;65481;47.600;19.682;2023-05-07T18:37:58;8.98;;;4.80;;
76591;SDS011;65481;47.600;19.682;2023-05-07T18:42:58;5.65;;;3.95;;
76591;SDS011;65481;47.600;19.682;2023-05-07T18:53:06;5.10;;;2.85;;
76591;SDS011;65481;47.600;19.682;2023-05-07T18:58:06;5.85;;;3.30;;
76591;SDS011;65481;47.600;19.682;2023-05-07T19:03:07;4.90;;;3.15;;
76591;SDS011;65481;47.600;19.682;2023-05-07T19:08:08;4.35;;;3.35;;
76591;SDS011;65481;47.600;19.682;2023-05-07T19:13:09;3.70;;;3.05;;
76591;SDS011;65481;47.600;19.682;2023-05-07T19:18:11;4.30;;;3.28;;
76591;SDS011;65481;47.600;19.682;2023-05-07T19:23:11;5.53;;;3.00;;
76591;SDS011;65481;47.600;19.682;2023-05-07T19:28:12;3.97;;;3.25;;
76591;SDS011;65481;47.600;19.682;2023-05-07T19:33:12;4.60;;;3.20;;
76591;SDS011;65481;47.600;19.682;2023-05-07T19:38:13;5.97;;;3.92;;
76591;SDS011;65481;47.600;19.682;2023-05-07T19:43:14;5.78;;;3.47;;
76591;SDS011;65481;47.600;19.682;2023-05-07T19:48:15;4.68;;;3.08;;
76591;SDS011;65481;47.600;19.682;2023-05-07T19:53:15;5.65;;;3.45;;
76591;SDS011;65481;47.600;19.682;2023-05-07T19:58:15;6.90;;;4.25;;
76591;SDS011;65481;47.600;19.682;2023-05-07T20:03:16;6.95;;;4.10;;
76591;SDS011;65481;47.600;19.682;2023-05-07T20:08:17;5.40;;;4.72;;
76591;SDS011;65481;47.600;19.682;2023-05-07T20:13:18;6.38;;;4.00;;
76591;SDS011;65481;47.600;19.682;2023-05-07T20:18:19;5.93;;;4.10;;
76591;SDS011;65481;47.600;19.682;2023-05-07T20:23:19;5.80;;;3.88;;
76591;SDS011;65481;47.600;19.682;2023-05-07T20:28:20;9.63;;;4.43;;
76591;SDS011;65481;47.600;19.682;2023-05-07T20:33:21;7.93;;;4.80;;
76591;SDS011;65481;47.600;19.682;2023-05-07T20:38:21;6.35;;;4.40;;
76591;SDS011;65481;47.600;19.682;2023-05-07T20:43:21;7.25;;;4.35;;
76591;SDS011;65481;47.600;19.682;2023-05-07T20:48:22;6.22;;;4.65;;
76591;SDS011;65481;47.600;19.682;2023-05-07T20:53:23;7.38;;;4.85;;
76591;SDS011;65481;47.600;19.682;2023-05-07T20:58:24;6.18;;;4.47;;
76591;SDS011;65481;47.600;19.682;2023-05-07T21:03:26;6.72;;;4.53;;
76591;SDS011;65481;47.600;19.682;2023-05-07T21:08:27;6.25;;;4.25;;
76591;SDS011;65481;47.600;19.682;2023-05-07T21:13:27;7.20;;;4.78;;
76591;SDS011;65481;47.600;19.682;2023-05-07T21:18:28;6.45;;;4.38;;
76591;SDS011;65481;47.600;19.682;2023-05-07T21:23:29;6.78;;;4.70;;
76591;SDS011;65481;47.600;19.682;2023-05-07T21:28:30;7.88;;;5.10;;
76591;SDS011;65481;47.600;19.682;2023-05-07T21:33:30;7.68;;;5.55;;
76591;SDS011;65481;47.600;19.682;2023-05-07T21:38:31;6.97;;;5.15;;
76591;SDS011;65481;47.600;19.682;2023-05-07T21:43:31;8.75;;;5.25;;
76591;SDS011;65481;47.600;19.682;2023-05-07T21:48:32;7.82;;;5.60;;
76591;SDS011;65481;47.600;19.682;2023-05-07T21:53:32;8.32;;;5.70;;
76591;SDS011;65481;47.600;19.682;2023-05-07T21:58:33;9.32;;;5.15;;
76591;SDS011;65481;47.600;19.682;2023-05-07T22:03:34;7.13;;;5.03;;
76591;SDS011;65481;47.600;19.682;2023-05-07T22:08:34;8.38;;;5.45;;
76591;SDS011;65481;47.600;19.682;2023-05-07T22:13:35;6.60;;;5.15;;
76591;SDS011;65481;47.600;19.682;2023-05-07T22:18:35;6.97;;;5.40;;
76591;SDS011;65481;47.600;19.682;2023-05-07T22:23:36;8.27;;;5.70;;
76591;SDS011;65481;47.600;19.682;2023-05-07T22:28:36;8.02;;;5.00;;
76591;SDS011;65481;47.600;19.682;2023-05-07T22:33:37;7.05;;;5.20;;
76591;SDS011;65481;47.600;19.682;2023-05-07T22:38:37;6.97;;;5.20;;
76591;SDS011;65481;47.600;19.682;2023-05-07T22:43:38;7.97;;;5.28;;
76591;SDS011;65481;47.600;19.682;2023-05-07T22:48:38;6.30;;;5.00;;
76591;SDS011;65481;47.600;19.682;2023-05-07T22:53:39;6.20;;;4.55;;
76591;SDS011;65481;47.600;19.682;2023-05-07T22:58:39;6.63;;;3.92;;
76591;SDS011;65481;47.600;19.682;2023-05-07T23:03:40;5.65;;;4.18;;
76591;SDS011;65481;47.600;19.682;2023-05-07T23:08:40;7.07;;;4.22;;
76591;SDS011;65481;47.600;19.682;2023-05-07T23:13:41;5.00;;;3.90;;
76591;SDS011;65481;47.600;19.682;2023-05-07T23:18:41;6.65;;;3.97;;
76591;SDS011;65481;47.600;19.682;2023-05-07T23:23:42;9.15;;;5.07;;
76591;SDS011;65481;47.600;19.682;2023-05-07T23:28:42;6.20;;;4.80;;
76591;SDS011;65481;47.600;19.682;2023-05-07T23:33:43;6.78;;;5.32;;
76591;SDS011;65481;47.600;19.682;2023-05-07T23:38:43;7.30;;;5.07;;
76591;SDS011;65481;47.600;19.682;2023-05-07T23:43:43;6.50;;;4.97;;
76591;SDS011;65481;47.600;19.682;2023-05-07T23:48:44;7.60;;;4.60;;
76591;SDS011;65481;47.600;19.682;2023-05-07T23:53:44;7.50;;;4.70;;
76591;SDS011;65481;47.600;19.682;2023-05-07T23:58:46;7.95;;;5.13;;
